sensor_id;sensor_type;location;lat;lon;timestamp;P1;durP1;ratioP1;P2;durP2;ratioP2
2930;SDS011;1475;51.454;7.150;2022-08-19T00:01:18;9.63;;;8.73;;
2930;SDS011;1475;51.454;7.150;2022-08-19T00:03:44;9.23;;;8.05;;
2930;SDS011;1475;51.454;7.150;2022-08-19T00:06:11;8.50;;;7.70;;
2930;SDS011;1475;51.454;7.150;2022-08-19T00:08:39;8.80;;;7.90;;
2930;SDS011;1475;51.454;7.150;2022-08-19T00:11:06;9.73;;;8.30;;
2930;SDS011;1475;51.454;7.150;2022-08-19T00:13:33;10.55;;;9.45;;
2930;SDS011;1475;51.454;7.150;2022-08-19T00:16:00;9.88;;;8.88;;
2930;SDS011;1475;51.454;7.150;2022-08-19T00:18:29;10.40;;;9.40;;
2930;SDS011;1475;51.454;7.150;2022-08-19T00:20:57;11.20;;;10.10;;
2930;SDS011;1475;51.454;7.150;2022-08-19T00:23:24;10.50;;;9.50;;
2930;SDS011;1475;51.454;7.150;2022-08-19T00:25:52;11.30;;;9.30;;
2930;SDS011;1475;51.454;7.150;2022-08-19T00:28:19;10.63;;;9.63;;
2930;SDS011;1475;51.454;7.150;2022-08-19T00:30:46;10.00;;;9.10;;
2930;SDS011;1475;51.454;7.150;2022-08-19T00:33:13;10.10;;;9.10;;
2930;SDS011;1475;51.454;7.150;2022-08-19T00:35:41;11.45;;;10.35;;
2930;SDS011;1475;51.454;7.150;2022-08-19T00:38:08;10.48;;;9.48;;
2930;SDS011;1475;51.454;7.150;2022-08-19T00:40:35;10.82;;;9.73;;
2930;SDS011;1475;51.454;7.150;2022-08-19T00:43:08;10.90;;;9.90;;
2930;SDS011;1475;51.454;7.150;2022-08-19T00:45:35;10.40;;;9.40;;
2930;SDS011;1475;51.454;7.150;2022-08-19T00:48:02;10.82;;;9.73;;
2930;SDS011;1475;51.454;7.150;2022-08-19T00:50:30;11.05;;;9.93;;
2930;SDS011;1475;51.454;7.150;2022-08-19T00:52:57;11.30;;;10.10;;
2930;SDS011;1475;51.454;7.150;2022-08-19T00:55:25;11.05;;;9.93;;
2930;SDS011;1475;51.454;7.150;2022-08-19T00:57:55;10.68;;;9.57;;
2930;SDS011;1475;51.454;7.150;2022-08-19T01:00:25;11.57;;;10.38;;
2930;SDS011;1475;51.454;7.150;2022-08-19T01:02:53;11.98;;;10.57;;
2930;SDS011;1475;51.454;7.150;2022-08-19T01:05:21;11.65;;;10.55;;
2930;SDS011;1475;51.454;7.150;2022-08-19T01:07:52;12.05;;;10.95;;
2930;SDS011;1475;51.454;7.150;2022-08-19T01:10:21;12.13;;;10.95;;
2930;SDS011;1475;51.454;7.150;2022-08-19T01:12:51;13.35;;;11.95;;
2930;SDS011;1475;51.454;7.150;2022-08-19T01:15:21;12.15;;;10.95;;
2930;SDS011;1475;51.454;7.150;2022-08-19T01:17:53;12.52;;;11.43;;
2930;SDS011;1475;51.454;7.150;2022-08-19T01:20:22;14.07;;;12.63;;
2930;SDS011;1475;51.454;7.150;2022-08-19T01:22:51;13.65;;;12.30;;
2930;SDS011;1475;51.454;7.150;2022-08-19T01:25:21;12.93;;;11.63;;
2930;SDS011;1475;51.454;7.150;2022-08-19T01:27:51;15.40;;;12.50;;
2930;SDS011;1475;51.454;7.150;2022-08-19T01:30:19;13.63;;;12.23;;
2930;SDS011;1475;51.454;7.150;2022-08-19T01:32:48;14.10;;;12.80;;
2930;SDS011;1475;51.454;7.150;2022-08-19T01:35:15;13.63;;;11.80;;
2930;SDS011;1475;51.454;7.150;2022-08-19T01:37:44;13.27;;;11.98;;
2930;SDS011;1475;51.454;7.150;2022-08-19T01:40:13;15.40;;;11.70;;
2930;SDS011;1475;51.454;7.150;2022-08-19T01:42:40;13.23;;;11.88;;
2930;SDS011;1475;51.454;7.150;2022-08-19T01:45:07;13.50;;;12.10;;
2930;SDS011;1475;51.454;7.150;2022-08-19T01:47:35;13.43;;;12.13;;
2930;SDS011;1475;51.454;7.150;2022-08-19T01:50:03;13.88;;;12.55;;
2930;SDS011;1475;51.454;7.150;2022-08-19T01:52:31;12.65;;;11.52;;
2930;SDS011;1475;51.454;7.150;2022-08-19T01:54:58;13.57;;;12.27;;
2930;SDS011;1475;51.454;7.150;2022-08-19T01:57:26;15.18;;;13.43;;
2930;SDS011;1475;51.454;7.150;2022-08-19T01:59:53;13.83;;;12.53;;
2930;SDS011;1475;51.454;7.150;2022-08-19T02:02:20;13.73;;;12.33;;
2930;SDS011;1475;51.454;7.150;2022-08-19T02:04:48;14.80;;;13.40;;
2930;SDS011;1475;51.454;7.150;2022-08-19T02:07:15;14.13;;;12.63;;
2930;SDS011;1475;51.454;7.150;2022-08-19T02:09:44;13.52;;;12.13;;
2930;SDS011;1475;51.454;7.150;2022-08-19T02:12:12;13.83;;;12.43;;
2930;SDS011;1475;51.454;7.150;2022-08-19T02:14:40;14.20;;;12.80;;
2930;SDS011;1475;51.454;7.150;2022-08-19T02:17:07;14.80;;;13.30;;
2930;SDS011;1475;51.454;7.150;2022-08-19T02:19:34;16.38;;;14.68;;
2930;SDS011;1475;51.454;7.150;2022-08-19T02:22:01;15.90;;;14.30;;
2930;SDS011;1475;51.454;7.150;2022-08-19T02:24:28;15.43;;;13.83;;
2930;SDS011;1475;51.454;7.150;2022-08-19T02:26:55;14.18;;;12.68;;
2930;SDS011;1475;51.454;7.150;2022-08-19T02:29:23;14.15;;;12.75;;
2930;SDS011;1475;51.454;7.150;2022-08-19T02:31:52;14.48;;;12.98;;
2930;SDS011;1475;51.454;7.150;2022-08-19T02:34:18;15.70;;;14.10;;
2930;SDS011;1475;51.454;7.150;2022-08-19T02:36:45;15.43;;;13.83;;
2930;SDS011;1475;51.454;7.150;2022-08-19T02:39:12;15.15;;;13.65;;
2930;SDS011;1475;51.454;7.150;2022-08-19T02:41:38;14.40;;;13.00;;
2930;SDS011;1475;51.454;7.150;2022-08-19T02:44:05;14.25;;;12.82;;
2930;SDS011;1475;51.454;7.150;2022-08-19T02:46:32;14.50;;;13.15;;
2930;SDS011;1475;51.454;7.150;2022-08-19T02:49:03;15.38;;;13.68;;
2930;SDS011;1475;51.454;7.150;2022-08-19T02:51:32;14.17;;;12.77;;
2930;SDS011;1475;51.454;7.150;2022-08-19T02:54:00;15.15;;;13.63;;
2930;SDS011;1475;51.454;7.150;2022-08-19T02:56:27;14.90;;;13.50;;
2930;SDS011;1475;51.454;7.150;2022-08-19T02:58:56;15.48;;;13.98;;
2930;SDS011;1475;51.454;7.150;2022-08-19T03:01:24;15.77;;;14.13;;
2930;SDS011;1475;51.454;7.150;2022-08-19T03:03:52;15.43;;;13.82;;
2930;SDS011;1475;51.454;7.150;2022-08-19T03:06:23;15.30;;;13.80;;
2930;SDS011;1475;51.454;7.150;2022-08-19T03:08:50;13.73;;;12.43;;
2930;SDS011;1475;51.454;7.150;2022-08-19T03:11:18;14.27;;;12.98;;
2930;SDS011;1475;51.454;7.150;2022-08-19T03:13:47;15.70;;;13.65;;
2930;SDS011;1475;51.454;7.150;2022-08-19T03:16:15;15.27;;;13.87;;
2930;SDS011;1475;51.454;7.150;2022-08-19T03:18:43;14.80;;;13.40;;
2930;SDS011;1475;51.454;7.150;2022-08-19T03:21:14;15.25;;;13.85;;
2930;SDS011;1475;51.454;7.150;2022-08-19T03:23:42;15.10;;;13.50;;
2930;SDS011;1475;51.454;7.150;2022-08-19T03:26:09;16.02;;;14.43;;
2930;SDS011;1475;51.454;7.150;2022-08-19T03:28:36;14.90;;;13.50;;
2930;SDS011;1475;51.454;7.150;2022-08-19T03:31:04;15.05;;;13.55;;
2930;SDS011;1475;51.454;7.150;2022-08-19T03:33:33;17.33;;;15.55;;
2930;SDS011;1475;51.454;7.150;2022-08-19T03:36:05;15.70;;;14.30;;
2930;SDS011;1475;51.454;7.150;2022-08-19T03:38:34;15.68;;;14.18;;
2930;SDS011;1475;51.454;7.150;2022-08-19T03:41:04;16.25;;;14.65;;
2930;SDS011;1475;51.454;7.150;2022-08-19T03:43:33;16.85;;;15.02;;
2930;SDS011;1475;51.454;7.150;2022-08-19T03:46:02;15.35;;;13.75;;
2930;SDS011;1475;51.454;7.150;2022-08-19T03:48:31;16.95;;;15.25;;
2930;SDS011;1475;51.454;7.150;2022-08-19T03:50:58;14.98;;;13.57;;
2930;SDS011;1475;51.454;7.150;2022-08-19T03:53:25;16.38;;;14.75;;
2930;SDS011;1475;51.454;7.150;2022-08-19T03:55:53;16.90;;;15.20;;
2930;SDS011;1475;51.454;7.150;2022-08-19T03:58:22;17.45;;;15.35;;
2930;SDS011;1475;51.454;7.150;2022-08-19T04:00:49;16.02;;;14.43;;
2930;SDS011;1475;51.454;7.150;2022-08-19T04:03:16;15.10;;;13.60;;
2930;SDS011;1475;51.454;7.150;2022-08-19T04:05:44;16.00;;;14.45;;
2930;SDS011;1475;51.454;7.150;2022-08-19T04:08:13;15.32;;;13.93;;
2930;SDS011;1475;51.454;7.150;2022-08-19T04:10:40;15.55;;;14.02;;
2930;SDS011;1475;51.454;7.150;2022-08-19T04:13:07;19.02;;;17.13;;
2930;SDS011;1475;51.454;7.150;2022-08-19T04:15:38;19.38;;;17.48;;
2930;SDS011;1475;51.454;7.150;2022-08-19T04:18:06;19.00;;;17.00;;
2930;SDS011;1475;51.454;7.150;2022-08-19T04:20:37;19.42;;;17.17;;
2930;SDS011;1475;51.454;7.150;2022-08-19T04:23:05;19.75;;;17.70;;
2930;SDS011;1475;51.454;7.150;2022-08-19T04:25:34;20.13;;;18.13;;
2930;SDS011;1475;51.454;7.150;2022-08-19T04:28:03;18.63;;;16.83;;
2930;SDS011;1475;51.454;7.150;2022-08-19T04:30:30;18.67;;;16.77;;
2930;SDS011;1475;51.454;7.150;2022-08-19T04:32:58;19.48;;;17.55;;
2930;SDS011;1475;51.454;7.150;2022-08-19T04:35:25;21.67;;;18.13;;
2930;SDS011;1475;51.454;7.150;2022-08-19T04:37:52;18.73;;;16.92;;
2930;SDS011;1475;51.454;7.150;2022-08-19T04:40:19;18.43;;;16.73;;
2930;SDS011;1475;51.454;7.150;2022-08-19T04:43:09;17.98;;;16.20;;
2930;SDS011;1475;51.454;7.150;2022-08-19T04:45:37;19.07;;;17.27;;
2930;SDS011;1475;51.454;7.150;2022-08-19T04:48:05;18.33;;;16.42;;
2930;SDS011;1475;51.454;7.150;2022-08-19T04:50:32;18.42;;;16.52;;
2930;SDS011;1475;51.454;7.150;2022-08-19T04:52:59;18.63;;;16.92;;
2930;SDS011;1475;51.454;7.150;2022-08-19T04:55:26;19.08;;;17.27;;
2930;SDS011;1475;51.454;7.150;2022-08-19T04:57:52;19.60;;;17.60;;
2930;SDS011;1475;51.454;7.150;2022-08-19T05:00:19;20.58;;;18.13;;
2930;SDS011;1475;51.454;7.150;2022-08-19T05:02:49;20.50;;;18.40;;
2930;SDS011;1475;51.454;7.150;2022-08-19T05:05:18;20.80;;;16.83;;
2930;SDS011;1475;51.454;7.150;2022-08-19T05:07:45;20.27;;;18.08;;
2930;SDS011;1475;51.454;7.150;2022-08-19T05:10:12;19.27;;;17.37;;
2930;SDS011;1475;51.454;7.150;2022-08-19T05:12:39;17.98;;;16.27;;
2930;SDS011;1475;51.454;7.150;2022-08-19T05:15:06;21.80;;;16.60;;
2930;SDS011;1475;51.454;7.150;2022-08-19T05:17:34;18.80;;;16.90;;
2930;SDS011;1475;51.454;7.150;2022-08-19T05:20:02;20.05;;;18.05;;
2930;SDS011;1475;51.454;7.150;2022-08-19T05:22:48;20.45;;;18.33;;
2930;SDS011;1475;51.454;7.150;2022-08-19T05:25:16;21.95;;;19.75;;
2930;SDS011;1475;51.454;7.150;2022-08-19T05:27:45;20.08;;;17.92;;
2930;SDS011;1475;51.454;7.150;2022-08-19T05:30:13;19.35;;;17.30;;
2930;SDS011;1475;51.454;7.150;2022-08-19T05:32:41;19.52;;;17.50;;
2930;SDS011;1475;51.454;7.150;2022-08-19T05:35:08;23.05;;;20.70;;
2930;SDS011;1475;51.454;7.150;2022-08-19T05:37:36;19.87;;;17.97;;
2930;SDS011;1475;51.454;7.150;2022-08-19T05:40:07;20.17;;;18.17;;
2930;SDS011;1475;51.454;7.150;2022-08-19T05:42:34;19.52;;;17.35;;
2930;SDS011;1475;51.454;7.150;2022-08-19T05:45:01;19.02;;;17.02;;
2930;SDS011;1475;51.454;7.150;2022-08-19T05:47:36;20.38;;;18.17;;
2930;SDS011;1475;51.454;7.150;2022-08-19T05:50:03;21.37;;;19.17;;
2930;SDS011;1475;51.454;7.150;2022-08-19T05:52:30;18.77;;;16.83;;
2930;SDS011;1475;51.454;7.150;2022-08-19T05:54:58;20.57;;;18.47;;
2930;SDS011;1475;51.454;7.150;2022-08-19T05:57:26;18.98;;;17.10;;
2930;SDS011;1475;51.454;7.150;2022-08-19T05:59:53;19.40;;;17.38;;
2930;SDS011;1475;51.454;7.150;2022-08-19T06:02:21;18.27;;;16.40;;
2930;SDS011;1475;51.454;7.150;2022-08-19T06:04:48;18.05;;;15.55;;
2930;SDS011;1475;51.454;7.150;2022-08-19T06:07:15;17.20;;;15.57;;
2930;SDS011;1475;51.454;7.150;2022-08-19T06:09:42;16.67;;;15.07;;
2930;SDS011;1475;51.454;7.150;2022-08-19T06:12:09;19.08;;;17.27;;
2930;SDS011;1475;51.454;7.150;2022-08-19T06:14:37;17.52;;;15.80;;
2930;SDS011;1475;51.454;7.150;2022-08-19T06:17:05;18.85;;;16.88;;
2930;SDS011;1475;51.454;7.150;2022-08-19T06:19:32;18.02;;;16.23;;
2930;SDS011;1475;51.454;7.150;2022-08-19T06:21:59;18.42;;;16.50;;
2930;SDS011;1475;51.454;7.150;2022-08-19T06:24:27;20.02;;;18.02;;
2930;SDS011;1475;51.454;7.150;2022-08-19T06:26:55;22.27;;;18.27;;
2930;SDS011;1475;51.454;7.150;2022-08-19T06:29:24;20.58;;;17.98;;
2930;SDS011;1475;51.454;7.150;2022-08-19T06:31:54;20.30;;;18.30;;
2930;SDS011;1475;51.454;7.150;2022-08-19T06:34:23;21.00;;;18.80;;
2930;SDS011;1475;51.454;7.150;2022-08-19T06:36:52;22.75;;;20.45;;
2930;SDS011;1475;51.454;7.150;2022-08-19T06:39:24;20.85;;;18.73;;
2930;SDS011;1475;51.454;7.150;2022-08-19T06:41:54;25.02;;;22.52;;
2930;SDS011;1475;51.454;7.150;2022-08-19T06:44:24;25.48;;;22.67;;
2930;SDS011;1475;51.454;7.150;2022-08-19T06:46:54;25.25;;;22.60;;
2930;SDS011;1475;51.454;7.150;2022-08-19T06:49:21;26.17;;;23.38;;
2930;SDS011;1475;51.454;7.150;2022-08-19T06:51:55;25.63;;;23.02;;
2930;SDS011;1475;51.454;7.150;2022-08-19T06:54:23;24.70;;;22.20;;
2930;SDS011;1475;51.454;7.150;2022-08-19T06:56:51;26.45;;;23.70;;
2930;SDS011;1475;51.454;7.150;2022-08-19T06:59:19;27.25;;;24.48;;
2930;SDS011;1475;51.454;7.150;2022-08-19T07:01:47;27.85;;;24.95;;
2930;SDS011;1475;51.454;7.150;2022-08-19T07:04:18;27.25;;;24.52;;
2930;SDS011;1475;51.454;7.150;2022-08-19T07:06:47;28.10;;;25.25;;
2930;SDS011;1475;51.454;7.150;2022-08-19T07:09:15;29.38;;;25.85;;
2930;SDS011;1475;51.454;7.150;2022-08-19T07:11:44;27.02;;;24.13;;
2930;SDS011;1475;51.454;7.150;2022-08-19T07:14:11;30.02;;;26.83;;
2930;SDS011;1475;51.454;7.150;2022-08-19T07:16:39;29.98;;;26.58;;
2930;SDS011;1475;51.454;7.150;2022-08-19T07:19:06;29.63;;;26.42;;
2930;SDS011;1475;51.454;7.150;2022-08-19T07:21:35;32.13;;;26.35;;
2930;SDS011;1475;51.454;7.150;2022-08-19T07:24:02;30.63;;;27.08;;
2930;SDS011;1475;51.454;7.150;2022-08-19T07:26:30;28.25;;;25.45;;
2930;SDS011;1475;51.454;7.150;2022-08-19T07:28:59;29.50;;;26.42;;
2930;SDS011;1475;51.454;7.150;2022-08-19T07:31:26;28.67;;;25.67;;
2930;SDS011;1475;51.454;7.150;2022-08-19T07:33:55;31.00;;;26.00;;
2930;SDS011;1475;51.454;7.150;2022-08-19T07:36:24;30.80;;;27.50;;
2930;SDS011;1475;51.454;7.150;2022-08-19T07:38:57;28.08;;;25.13;;
2930;SDS011;1475;51.454;7.150;2022-08-19T07:41:26;27.15;;;24.33;;
2930;SDS011;1475;51.454;7.150;2022-08-19T07:43:56;27.50;;;24.70;;
2930;SDS011;1475;51.454;7.150;2022-08-19T07:46:23;27.85;;;25.10;;
2930;SDS011;1475;51.454;7.150;2022-08-19T07:48:51;25.63;;;22.92;;
2930;SDS011;1475;51.454;7.150;2022-08-19T07:51:19;26.52;;;23.73;;
2930;SDS011;1475;51.454;7.150;2022-08-19T07:53:47;26.40;;;23.70;;
2930;SDS011;1475;51.454;7.150;2022-08-19T07:56:16;25.40;;;22.65;;
2930;SDS011;1475;51.454;7.150;2022-08-19T07:58:45;26.30;;;23.50;;
2930;SDS011;1475;51.454;7.150;2022-08-19T08:01:15;27.35;;;24.10;;
2930;SDS011;1475;51.454;7.150;2022-08-19T08:03:44;28.25;;;25.38;;
2930;SDS011;1475;51.454;7.150;2022-08-19T08:06:29;27.40;;;24.50;;
2930;SDS011;1475;51.454;7.150;2022-08-19T08:09:14;30.17;;;24.75;;
2930;SDS011;1475;51.454;7.150;2022-08-19T08:11:48;29.45;;;26.25;;
2930;SDS011;1475;51.454;7.150;2022-08-19T08:14:17;27.90;;;25.13;;
2930;SDS011;1475;51.454;7.150;2022-08-19T08:16:50;26.75;;;23.85;;
2930;SDS011;1475;51.454;7.150;2022-08-19T08:19:17;28.05;;;25.25;;
2930;SDS011;1475;51.454;7.150;2022-08-19T08:21:45;28.48;;;25.60;;
2930;SDS011;1475;51.454;7.150;2022-08-19T08:24:12;31.08;;;27.88;;
2930;SDS011;1475;51.454;7.150;2022-08-19T08:26:39;31.00;;;27.63;;
2930;SDS011;1475;51.454;7.150;2022-08-19T08:29:09;31.13;;;27.93;;
2930;SDS011;1475;51.454;7.150;2022-08-19T08:31:37;33.42;;;29.88;;
2930;SDS011;1475;51.454;7.150;2022-08-19T08:34:04;34.83;;;31.13;;
2930;SDS011;1475;51.454;7.150;2022-08-19T08:36:32;32.83;;;29.53;;
2930;SDS011;1475;51.454;7.150;2022-08-19T08:39:03;32.78;;;29.38;;
2930;SDS011;1475;51.454;7.150;2022-08-19T08:41:31;35.65;;;32.15;;
2930;SDS011;1475;51.454;7.150;2022-08-19T08:44:06;38.28;;;34.55;;
2930;SDS011;1475;51.454;7.150;2022-08-19T08:46:43;37.07;;;33.37;;
2930;SDS011;1475;51.454;7.150;2022-08-19T08:49:17;36.50;;;32.80;;
2930;SDS011;1475;51.454;7.150;2022-08-19T08:51:53;37.92;;;34.08;;
2930;SDS011;1475;51.454;7.150;2022-08-19T08:54:28;38.87;;;35.07;;
2930;SDS011;1475;51.454;7.150;2022-08-19T08:56:59;37.65;;;33.97;;
2930;SDS011;1475;51.454;7.150;2022-08-19T08:59:28;37.42;;;33.72;;
2930;SDS011;1475;51.454;7.150;2022-08-19T09:01:58;38.17;;;34.28;;
2930;SDS011;1475;51.454;7.150;2022-08-19T09:04:25;35.55;;;31.95;;
2930;SDS011;1475;51.454;7.150;2022-08-19T09:06:55;35.15;;;31.65;;
2930;SDS011;1475;51.454;7.150;2022-08-19T09:09:30;34.20;;;30.90;;
2930;SDS011;1475;51.454;7.150;2022-08-19T09:12:03;32.60;;;29.57;;
2930;SDS011;1475;51.454;7.150;2022-08-19T09:14:39;33.17;;;29.88;;
2930;SDS011;1475;51.454;7.150;2022-08-19T09:17:12;34.15;;;30.85;;
2930;SDS011;1475;51.454;7.150;2022-08-19T09:19:46;34.33;;;29.73;;
2930;SDS011;1475;51.454;7.150;2022-08-19T09:22:20;29.00;;;26.10;;
2930;SDS011;1475;51.454;7.150;2022-08-19T09:24:49;29.58;;;26.48;;
2930;SDS011;1475;51.454;7.150;2022-08-19T09:27:17;32.40;;;29.13;;
2930;SDS011;1475;51.454;7.150;2022-08-19T09:29:54;32.47;;;29.20;;
2930;SDS011;1475;51.454;7.150;2022-08-19T09:32:22;30.70;;;27.40;;
2930;SDS011;1475;51.454;7.150;2022-08-19T09:34:52;29.60;;;26.90;;
2930;SDS011;1475;51.454;7.150;2022-08-19T09:37:23;29.15;;;26.25;;
2930;SDS011;1475;51.454;7.150;2022-08-19T09:39:50;27.45;;;24.75;;
2930;SDS011;1475;51.454;7.150;2022-08-19T09:42:18;28.10;;;25.23;;
2930;SDS011;1475;51.454;7.150;2022-08-19T09:44:45;28.00;;;25.20;;
2930;SDS011;1475;51.454;7.150;2022-08-19T09:47:13;27.92;;;25.23;;
2930;SDS011;1475;51.454;7.150;2022-08-19T09:49:41;27.67;;;24.90;;
2930;SDS011;1475;51.454;7.150;2022-08-19T09:52:09;30.42;;;27.42;;
2930;SDS011;1475;51.454;7.150;2022-08-19T09:54:40;26.92;;;24.13;;
2930;SDS011;1475;51.454;7.150;2022-08-19T09:57:07;24.38;;;21.88;;
2930;SDS011;1475;51.454;7.150;2022-08-19T09:59:34;25.17;;;22.75;;
2930;SDS011;1475;51.454;7.150;2022-08-19T10:02:05;25.73;;;23.07;;
2930;SDS011;1475;51.454;7.150;2022-08-19T10:04:33;22.35;;;20.05;;
2930;SDS011;1475;51.454;7.150;2022-08-19T10:07:29;20.95;;;18.75;;
2930;SDS011;1475;51.454;7.150;2022-08-19T10:09:56;21.70;;;19.50;;
2930;SDS011;1475;51.454;7.150;2022-08-19T10:12:23;21.42;;;19.13;;
2930;SDS011;1475;51.454;7.150;2022-08-19T10:14:50;19.95;;;17.95;;
2930;SDS011;1475;51.454;7.150;2022-08-19T10:17:18;19.58;;;17.63;;
2930;SDS011;1475;51.454;7.150;2022-08-19T10:19:46;21.48;;;19.20;;
2930;SDS011;1475;51.454;7.150;2022-08-19T10:22:13;21.48;;;19.27;;
2930;SDS011;1475;51.454;7.150;2022-08-19T10:24:41;22.33;;;20.13;;
2930;SDS011;1475;51.454;7.150;2022-08-19T10:27:08;21.08;;;19.08;;
2930;SDS011;1475;51.454;7.150;2022-08-19T10:29:35;20.92;;;18.92;;
2930;SDS011;1475;51.454;7.150;2022-08-19T10:32:02;20.52;;;18.33;;
2930;SDS011;1475;51.454;7.150;2022-08-19T10:34:31;19.05;;;17.05;;
2930;SDS011;1475;51.454;7.150;2022-08-19T10:36:59;20.20;;;18.30;;
2930;SDS011;1475;51.454;7.150;2022-08-19T10:39:26;18.50;;;16.60;;
2930;SDS011;1475;51.454;7.150;2022-08-19T10:41:54;19.60;;;17.60;;
2930;SDS011;1475;51.454;7.150;2022-08-19T10:44:22;19.23;;;17.23;;
2930;SDS011;1475;51.454;7.150;2022-08-19T10:46:54;19.88;;;18.08;;
2930;SDS011;1475;51.454;7.150;2022-08-19T10:49:21;19.02;;;17.13;;
2930;SDS011;1475;51.454;7.150;2022-08-19T10:51:49;19.52;;;17.52;;
2930;SDS011;1475;51.454;7.150;2022-08-19T10:54:35;17.58;;;15.98;;
2930;SDS011;1475;51.454;7.150;2022-08-19T10:57:18;19.92;;;17.90;;
2930;SDS011;1475;51.454;7.150;2022-08-19T10:59:45;21.58;;;19.27;;
2930;SDS011;1475;51.454;7.150;2022-08-19T11:02:12;22.35;;;20.20;;
2930;SDS011;1475;51.454;7.150;2022-08-19T11:04:40;21.95;;;19.85;;
2930;SDS011;1475;51.454;7.150;2022-08-19T11:07:09;20.60;;;18.60;;
2930;SDS011;1475;51.454;7.150;2022-08-19T11:09:39;23.38;;;21.08;;
2930;SDS011;1475;51.454;7.150;2022-08-19T11:12:07;21.95;;;19.75;;
2930;SDS011;1475;51.454;7.150;2022-08-19T11:14:35;23.80;;;21.50;;
2930;SDS011;1475;51.454;7.150;2022-08-19T11:17:03;18.73;;;16.93;;
2930;SDS011;1475;51.454;7.150;2022-08-19T11:19:31;20.80;;;18.80;;
2930;SDS011;1475;51.454;7.150;2022-08-19T11:21:59;18.75;;;17.05;;
2930;SDS011;1475;51.454;7.150;2022-08-19T11:24:28;19.75;;;17.95;;
2930;SDS011;1475;51.454;7.150;2022-08-19T11:27:00;20.42;;;18.42;;
2930;SDS011;1475;51.454;7.150;2022-08-19T11:29:29;19.67;;;17.63;;
2930;SDS011;1475;51.454;7.150;2022-08-19T11:31:57;18.33;;;16.63;;
2930;SDS011;1475;51.454;7.150;2022-08-19T11:34:27;16.00;;;14.43;;
2930;SDS011;1475;51.454;7.150;2022-08-19T11:36:54;15.80;;;14.40;;
2930;SDS011;1475;51.454;7.150;2022-08-19T11:39:24;17.48;;;15.88;;
2930;SDS011;1475;51.454;7.150;2022-08-19T11:41:53;18.20;;;16.30;;
2930;SDS011;1475;51.454;7.150;2022-08-19T11:44:22;18.50;;;16.70;;
2930;SDS011;1475;51.454;7.150;2022-08-19T11:46:48;18.55;;;16.83;;
2930;SDS011;1475;51.454;7.150;2022-08-19T11:49:17;16.05;;;14.55;;
2930;SDS011;1475;51.454;7.150;2022-08-19T11:51:46;16.63;;;14.93;;
2930;SDS011;1475;51.454;7.150;2022-08-19T11:54:15;16.48;;;14.90;;
2930;SDS011;1475;51.454;7.150;2022-08-19T11:56:43;15.45;;;14.05;;
2930;SDS011;1475;51.454;7.150;2022-08-19T11:59:10;15.18;;;13.77;;
2930;SDS011;1475;51.454;7.150;2022-08-19T12:01:39;12.98;;;11.85;;
2930;SDS011;1475;51.454;7.150;2022-08-19T12:04:07;11.57;;;10.37;;
2930;SDS011;1475;51.454;7.150;2022-08-19T12:06:37;14.10;;;12.80;;
2930;SDS011;1475;51.454;7.150;2022-08-19T12:09:06;13.40;;;12.00;;
2930;SDS011;1475;51.454;7.150;2022-08-19T12:11:36;14.53;;;13.17;;
2930;SDS011;1475;51.454;7.150;2022-08-19T12:14:03;13.60;;;12.40;;
2930;SDS011;1475;51.454;7.150;2022-08-19T12:16:31;11.97;;;10.87;;
2930;SDS011;1475;51.454;7.150;2022-08-19T12:19:03;12.25;;;10.98;;
2930;SDS011;1475;51.454;7.150;2022-08-19T12:21:35;12.70;;;11.50;;
2930;SDS011;1475;51.454;7.150;2022-08-19T12:24:05;12.20;;;11.10;;
2930;SDS011;1475;51.454;7.150;2022-08-19T12:26:33;11.05;;;10.07;;
2930;SDS011;1475;51.454;7.150;2022-08-19T12:29:01;11.00;;;9.93;;
2930;SDS011;1475;51.454;7.150;2022-08-19T12:31:29;11.98;;;10.88;;
2930;SDS011;1475;51.454;7.150;2022-08-19T12:33:57;11.50;;;10.35;;
2930;SDS011;1475;51.454;7.150;2022-08-19T12:36:28;12.25;;;10.27;;
2930;SDS011;1475;51.454;7.150;2022-08-19T12:38:55;12.20;;;11.10;;
2930;SDS011;1475;51.454;7.150;2022-08-19T12:41:24;11.50;;;10.50;;
2930;SDS011;1475;51.454;7.150;2022-08-19T12:43:52;10.27;;;9.27;;
2930;SDS011;1475;51.454;7.150;2022-08-19T12:46:19;9.75;;;8.85;;
2930;SDS011;1475;51.454;7.150;2022-08-19T12:48:46;10.83;;;9.73;;
2930;SDS011;1475;51.454;7.150;2022-08-19T12:51:14;8.80;;;7.90;;
2930;SDS011;1475;51.454;7.150;2022-08-19T12:53:45;7.60;;;6.90;;
2930;SDS011;1475;51.454;7.150;2022-08-19T12:56:14;8.73;;;7.75;;
2930;SDS011;1475;51.454;7.150;2022-08-19T12:58:42;8.60;;;7.80;;
2930;SDS011;1475;51.454;7.150;2022-08-19T13:01:09;8.75;;;7.95;;
2930;SDS011;1475;51.454;7.150;2022-08-19T13:03:38;7.65;;;6.90;;
2930;SDS011;1475;51.454;7.150;2022-08-19T13:06:05;7.80;;;6.63;;
2930;SDS011;1475;51.454;7.150;2022-08-19T13:08:33;7.85;;;7.15;;
2930;SDS011;1475;51.454;7.150;2022-08-19T13:11:07;8.27;;;7.57;;
2930;SDS011;1475;51.454;7.150;2022-08-19T13:13:36;9.30;;;7.87;;
2930;SDS011;1475;51.454;7.150;2022-08-19T13:16:06;8.32;;;7.63;;
2930;SDS011;1475;51.454;7.150;2022-08-19T13:18:33;8.32;;;7.20;;
2930;SDS011;1475;51.454;7.150;2022-08-19T13:21:01;8.70;;;7.50;;
2930;SDS011;1475;51.454;7.150;2022-08-19T13:23:30;7.65;;;6.95;;
2930;SDS011;1475;51.454;7.150;2022-08-19T13:25:57;8.13;;;6.75;;
2930;SDS011;1475;51.454;7.150;2022-08-19T13:28:26;10.00;;;7.37;;
2930;SDS011;1475;51.454;7.150;2022-08-19T13:31:14;6.75;;;6.15;;
2930;SDS011;1475;51.454;7.150;2022-08-19T13:33:59;6.68;;;5.78;;
2930;SDS011;1475;51.454;7.150;2022-08-19T13:36:26;6.70;;;6.10;;
2930;SDS011;1475;51.454;7.150;2022-08-19T13:38:53;6.03;;;5.53;;
2930;SDS011;1475;51.454;7.150;2022-08-19T13:41:21;6.63;;;5.50;;
2930;SDS011;1475;51.454;7.150;2022-08-19T13:43:50;7.07;;;6.20;;
2930;SDS011;1475;51.454;7.150;2022-08-19T13:46:17;6.70;;;5.50;;
2930;SDS011;1475;51.454;7.150;2022-08-19T13:48:45;7.25;;;6.55;;
2930;SDS011;1475;51.454;7.150;2022-08-19T13:51:13;7.35;;;6.65;;
2930;SDS011;1475;51.454;7.150;2022-08-19T13:53:41;6.13;;;5.53;;
2930;SDS011;1475;51.454;7.150;2022-08-19T13:56:09;7.00;;;6.30;;
2930;SDS011;1475;51.454;7.150;2022-08-19T13:58:38;7.45;;;6.65;;
2930;SDS011;1475;51.454;7.150;2022-08-19T14:01:06;6.22;;;5.50;;
2930;SDS011;1475;51.454;7.150;2022-08-19T14:03:34;6.53;;;5.93;;
2930;SDS011;1475;51.454;7.150;2022-08-19T14:06:01;7.75;;;5.38;;
2930;SDS011;1475;51.454;7.150;2022-08-19T14:08:28;6.20;;;5.60;;
2930;SDS011;1475;51.454;7.150;2022-08-19T14:10:57;5.90;;;5.30;;
2930;SDS011;1475;51.454;7.150;2022-08-19T14:13:24;6.10;;;5.43;;
2930;SDS011;1475;51.454;7.150;2022-08-19T14:15:51;6.10;;;5.50;;
2930;SDS011;1475;51.454;7.150;2022-08-19T14:18:19;5.93;;;5.32;;
2930;SDS011;1475;51.454;7.150;2022-08-19T14:20:46;6.60;;;5.38;;
2930;SDS011;1475;51.454;7.150;2022-08-19T14:23:14;4.88;;;4.35;;
2930;SDS011;1475;51.454;7.150;2022-08-19T14:25:41;7.80;;;6.43;;
2930;SDS011;1475;51.454;7.150;2022-08-19T14:28:08;6.90;;;5.50;;
2930;SDS011;1475;51.454;7.150;2022-08-19T14:30:36;5.68;;;5.07;;
2930;SDS011;1475;51.454;7.150;2022-08-19T14:33:04;6.23;;;4.73;;
2930;SDS011;1475;51.454;7.150;2022-08-19T14:35:33;5.50;;;5.00;;
2930;SDS011;1475;51.454;7.150;2022-08-19T14:38:01;7.13;;;5.20;;
2930;SDS011;1475;51.454;7.150;2022-08-19T14:40:30;7.32;;;5.40;;
2930;SDS011;1475;51.454;7.150;2022-08-19T14:42:58;6.77;;;5.40;;
2930;SDS011;1475;51.454;7.150;2022-08-19T14:45:29;7.80;;;5.30;;
2930;SDS011;1475;51.454;7.150;2022-08-19T14:47:57;8.77;;;6.00;;
2930;SDS011;1475;51.454;7.150;2022-08-19T14:50:25;6.45;;;5.60;;
2930;SDS011;1475;51.454;7.150;2022-08-19T14:52:58;7.15;;;6.45;;
2930;SDS011;1475;51.454;7.150;2022-08-19T14:55:28;8.27;;;5.72;;
2930;SDS011;1475;51.454;7.150;2022-08-19T14:57:55;6.30;;;5.60;;
2930;SDS011;1475;51.454;7.150;2022-08-19T15:00:22;7.47;;;5.60;;
2930;SDS011;1475;51.454;7.150;2022-08-19T15:02:49;5.40;;;4.90;;